sensor_id;sensor_type;location;lat;lon;timestamp;temperature;humidity
32811;DHT22;65470;47.324;8.548;2023-02-01T00:01:35;6.00;99.90
32811;DHT22;65470;47.324;8.548;2023-02-01T00:04:01;6.00;99.90
32811;DHT22;65470;47.324;8.548;2023-02-01T00:06:27;6.00;99.90
32811;DHT22;65470;47.324;8.548;2023-02-01T00:08:54;6.00;99.90
32811;DHT22;65470;47.324;8.548;2023-02-01T00:11:20;6.00;99.90
32811;DHT22;65470;47.324;8.548;2023-02-01T00:13:46;6.00;99.90
32811;DHT22;65470;47.324;8.548;2023-02-01T00:16:15;6.00;99.90
32811;DHT22;65470;47.324;8.548;2023-02-01T00:18:44;6.00;99.90
32811;DHT22;65470;47.324;8.548;2023-02-01T00:21:11;6.00;99.90
32811;DHT22;65470;47.324;8.548;2023-02-01T00:23:37;5.90;99.90
32811;DHT22;65470;47.324;8.548;2023-02-01T00:26:06;5.90;99.90
32811;DHT22;65470;47.324;8.548;2023-02-01T00:28:32;5.80;99.90
32811;DHT22;65470;47.324;8.548;2023-02-01T00:30:59;5.80;99.90
32811;DHT22;65470;47.324;8.548;2023-02-01T00:33:25;5.70;99.90
32811;DHT22;65470;47.324;8.548;2023-02-01T00:35:51;5.60;99.90
32811;DHT22;65470;47.324;8.548;2023-02-01T00:38:21;5.50;99.90
32811;DHT22;65470;47.324;8.548;2023-02-01T00:40:46;5.50;99.90
32811;DHT22;65470;47.324;8.548;2023-02-01T00:43:12;5.40;99.90
32811;DHT22;65470;47.324;8.548;2023-02-01T00:45:37;5.40;99.90
32811;DHT22;65470;47.324;8.548;2023-02-01T00:48:03;5.40;99.90
32811;DHT22;65470;47.324;8.548;2023-02-01T00:50:29;5.40;99.90
32811;DHT22;65470;47.324;8.548;2023-02-01T00:52:54;5.30;99.90
32811;DHT22;65470;47.324;8.548;2023-02-01T00:55:20;5.30;99.90
32811;DHT22;65470;47.324;8.548;2023-02-01T00:57:45;5.20;99.90
32811;DHT22;65470;47.324;8.548;2023-02-01T01:00:11;5.10;99.90
32811;DHT22;65470;47.324;8.548;2023-02-01T01:02:37;5.10;99.90
32811;DHT22;65470;47.324;8.548;2023-02-01T01:05:03;5.00;99.90
32811;DHT22;65470;47.324;8.548;2023-02-01T01:07:28;4.90;99.90
32811;DHT22;65470;47.324;8.548;2023-02-01T01:09:55;4.90;99.90
32811;DHT22;65470;47.324;8.548;2023-02-01T01:12:20;4.90;99.90
32811;DHT22;65470;47.324;8.548;2023-02-01T01:14:46;4.80;99.90
32811;DHT22;65470;47.324;8.548;2023-02-01T01:17:11;4.70;99.90
32811;DHT22;65470;47.324;8.548;2023-02-01T01:19:37;4.60;99.90
32811;DHT22;65470;47.324;8.548;2023-02-01T01:22:03;4.60;99.90
32811;DHT22;65470;47.324;8.548;2023-02-01T01:24:28;4.50;99.90
32811;DHT22;65470;47.324;8.548;2023-02-01T01:26:54;4.50;99.90
32811;DHT22;65470;47.324;8.548;2023-02-01T01:29:20;4.50;99.90
32811;DHT22;65470;47.324;8.548;2023-02-01T01:31:45;4.60;99.90
32811;DHT22;65470;47.324;8.548;2023-02-01T01:34:11;4.70;99.90
32811;DHT22;65470;47.324;8.548;2023-02-01T01:36:36;4.80;99.90
32811;DHT22;65470;47.324;8.548;2023-02-01T01:39:02;4.90;99.90
32811;DHT22;65470;47.324;8.548;2023-02-01T01:41:32;5.00;99.90
32811;DHT22;65470;47.324;8.548;2023-02-01T01:44:01;5.10;99.90
32811;DHT22;65470;47.324;8.548;2023-02-01T01:46:37;5.00;99.90
32811;DHT22;65470;47.324;8.548;2023-02-01T01:49:16;5.00;99.90
32811;DHT22;65470;47.324;8.548;2023-02-01T01:51:51;5.10;99.90
32811;DHT22;65470;47.324;8.548;2023-02-01T01:54:21;5.10;99.90
32811;DHT22;65470;47.324;8.548;2023-02-01T01:56:52;5.10;99.90
32811;DHT22;65470;47.324;8.548;2023-02-01T01:59:20;5.10;99.90
32811;DHT22;65470;47.324;8.548;2023-02-01T02:01:47;5.10;99.90
32811;DHT22;65470;47.324;8.548;2023-02-01T02:04:13;5.10;99.90
32811;DHT22;65470;47.324;8.548;2023-02-01T02:06:43;5.10;99.90
32811;DHT22;65470;47.324;8.548;2023-02-01T02:09:14;5.00;99.90
32811;DHT22;65470;47.324;8.548;2023-02-01T02:11:39;5.10;99.90
32811;DHT22;65470;47.324;8.548;2023-02-01T02:14:09;5.10;99.90
32811;DHT22;65470;47.324;8.548;2023-02-01T02:22:35;5.00;99.90
32811;DHT22;65470;47.324;8.548;2023-02-01T02:25:38;5.00;99.90
32811;DHT22;65470;47.324;8.548;2023-02-01T02:28:29;5.10;99.90
32811;DHT22;65470;47.324;8.548;2023-02-01T02:34:03;4.90;99.90
32811;DHT22;65470;47.324;8.548;2023-02-01T02:45:04;4.70;99.90
32811;DHT22;65470;47.324;8.548;2023-02-01T02:50:41;4.60;99.90
32811;DHT22;65470;47.324;8.548;2023-02-01T02:53:38;4.60;99.90
32811;DHT22;65470;47.324;8.548;2023-02-01T02:56:25;4.60;99.90
32811;DHT22;65470;47.324;8.548;2023-02-01T02:59:12;4.60;99.90
32811;DHT22;65470;47.324;8.548;2023-02-01T03:05:20;4.50;99.90
32811;DHT22;65470;47.324;8.548;2023-02-01T03:08:11;4.60;99.90
32811;DHT22;65470;47.324;8.548;2023-02-01T03:21:28;4.70;99.90
32811;DHT22;65470;47.324;8.548;2023-02-01T03:24:00;4.80;99.90
32811;DHT22;65470;47.324;8.548;2023-02-01T03:26:28;4.80;99.90
32811;DHT22;65470;47.324;8.548;2023-02-01T03:29:00;4.80;99.90
32811;DHT22;65470;47.324;8.548;2023-02-01T03:31:28;4.80;99.90
32811;DHT22;65470;47.324;8.548;2023-02-01T03:33:54;4.80;99.90
32811;DHT22;65470;47.324;8.548;2023-02-01T03:36:30;4.80;99.90
32811;DHT22;65470;47.324;8.548;2023-02-01T03:39:36;4.80;99.90
32811;DHT22;65470;47.324;8.548;2023-02-01T03:42:14;4.90;99.90
32811;DHT22;65470;47.324;8.548;2023-02-01T03:47:26;5.00;99.90
32811;DHT22;65470;47.324;8.548;2023-02-01T03:49:57;4.90;99.90
32811;DHT22;65470;47.324;8.548;2023-02-01T03:53:26;4.90;99.90
32811;DHT22;65470;47.324;8.548;2023-02-01T03:55:33;5.00;99.90
32811;DHT22;65470;47.324;8.548;2023-02-01T03:58:18;5.00;99.90
32811;DHT22;65470;47.324;8.548;2023-02-01T04:00:50;5.00;99.90
32811;DHT22;65470;47.324;8.548;2023-02-01T04:03:16;4.90;99.90
32811;DHT22;65470;47.324;8.548;2023-02-01T04:05:42;4.90;99.90
32811;DHT22;65470;47.324;8.548;2023-02-01T04:08:07;4.90;99.90
32811;DHT22;65470;47.324;8.548;2023-02-01T04:10:33;4.90;99.90
32811;DHT22;65470;47.324;8.548;2023-02-01T04:12:58;4.90;99.90
32811;DHT22;65470;47.324;8.548;2023-02-01T04:15:24;4.90;99.90
32811;DHT22;65470;47.324;8.548;2023-02-01T04:17:50;4.90;99.90
32811;DHT22;65470;47.324;8.548;2023-02-01T04:20:16;4.80;99.90
32811;DHT22;65470;47.324;8.548;2023-02-01T04:22:41;4.80;99.90
32811;DHT22;65470;47.324;8.548;2023-02-01T04:25:07;4.90;99.90
32811;DHT22;65470;47.324;8.548;2023-02-01T04:27:33;5.00;99.90
32811;DHT22;65470;47.324;8.548;2023-02-01T04:29:59;5.00;99.90
32811;DHT22;65470;47.324;8.548;2023-02-01T04:32:24;5.10;99.90
32811;DHT22;65470;47.324;8.548;2023-02-01T04:34:50;5.20;99.90
32811;DHT22;65470;47.324;8.548;2023-02-01T04:37:16;5.10;99.90
32811;DHT22;65470;47.324;8.548;2023-02-01T04:39:41;5.20;99.90
32811;DHT22;65470;47.324;8.548;2023-02-01T04:42:07;5.20;99.90
32811;DHT22;65470;47.324;8.548;2023-02-01T04:44:34;5.20;99.90
32811;DHT22;65470;47.324;8.548;2023-02-01T04:46:59;5.30;99.90
32811;DHT22;65470;47.324;8.548;2023-02-01T04:49:25;5.40;99.90
32811;DHT22;65470;47.324;8.548;2023-02-01T04:51:52;5.40;99.90
32811;DHT22;65470;47.324;8.548;2023-02-01T04:54:17;5.40;99.90
32811;DHT22;65470;47.324;8.548;2023-02-01T04:56:43;5.40;99.90
32811;DHT22;65470;47.324;8.548;2023-02-01T04:59:11;5.40;99.90
32811;DHT22;65470;47.324;8.548;2023-02-01T05:01:37;5.50;99.90
32811;DHT22;65470;47.324;8.548;2023-02-01T05:04:02;5.50;99.90
32811;DHT22;65470;47.324;8.548;2023-02-01T05:06:28;5.50;99.90
32811;DHT22;65470;47.324;8.548;2023-02-01T05:08:54;5.60;99.90
32811;DHT22;65470;47.324;8.548;2023-02-01T05:11:19;5.60;99.90
32811;DHT22;65470;47.324;8.548;2023-02-01T05:14:04;5.60;99.90
32811;DHT22;65470;47.324;8.548;2023-02-01T05:16:29;5.60;99.90
32811;DHT22;65470;47.324;8.548;2023-02-01T05:18:55;5.70;99.90
32811;DHT22;65470;47.324;8.548;2023-02-01T05:21:21;5.80;99.90
32811;DHT22;65470;47.324;8.548;2023-02-01T05:23:47;5.80;99.90
32811;DHT22;65470;47.324;8.548;2023-02-01T05:26:31;5.80;99.90
32811;DHT22;65470;47.324;8.548;2023-02-01T05:28:57;5.90;99.90
32811;DHT22;65470;47.324;8.548;2023-02-01T05:31:23;5.90;99.90
32811;DHT22;65470;47.324;8.548;2023-02-01T05:33:49;5.90;99.90
32811;DHT22;65470;47.324;8.548;2023-02-01T05:36:14;5.80;99.90
32811;DHT22;65470;47.324;8.548;2023-02-01T05:38:40;5.80;99.90
32811;DHT22;65470;47.324;8.548;2023-02-01T05:41:06;5.80;99.90
32811;DHT22;65470;47.324;8.548;2023-02-01T05:43:32;5.80;99.90
32811;DHT22;65470;47.324;8.548;2023-02-01T05:45:58;5.90;99.90
32811;DHT22;65470;47.324;8.548;2023-02-01T05:48:23;5.70;99.90
32811;DHT22;65470;47.324;8.548;2023-02-01T05:50:49;5.70;99.90
32811;DHT22;65470;47.324;8.548;2023-02-01T05:53:15;5.70;99.90
32811;DHT22;65470;47.324;8.548;2023-02-01T05:55:41;5.70;99.90
32811;DHT22;65470;47.324;8.548;2023-02-01T05:58:07;5.70;99.90
32811;DHT22;65470;47.324;8.548;2023-02-01T06:00:33;5.70;99.90
32811;DHT22;65470;47.324;8.548;2023-02-01T06:02:59;5.70;99.90
32811;DHT22;65470;47.324;8.548;2023-02-01T06:05:24;5.70;99.90
32811;DHT22;65470;47.324;8.548;2023-02-01T06:07:50;5.70;99.90
32811;DHT22;65470;47.324;8.548;2023-02-01T06:10:19;5.70;99.90
32811;DHT22;65470;47.324;8.548;2023-02-01T06:12:46;5.70;99.90
32811;DHT22;65470;47.324;8.548;2023-02-01T06:15:12;5.70;99.90
32811;DHT22;65470;47.324;8.548;2023-02-01T06:17:41;5.80;99.90
32811;DHT22;65470;47.324;8.548;2023-02-01T06:20:09;5.90;99.90
32811;DHT22;65470;47.324;8.548;2023-02-01T06:22:35;5.90;99.90
32811;DHT22;65470;47.324;8.548;2023-02-01T06:25:05;5.80;99.90
32811;DHT22;65470;47.324;8.548;2023-02-01T06:27:32;5.90;99.90
32811;DHT22;65470;47.324;8.548;2023-02-01T06:29:57;5.80;99.90
32811;DHT22;65470;47.324;8.548;2023-02-01T06:32:23;5.70;99.90
32811;DHT22;65470;47.324;8.548;2023-02-01T06:34:49;5.70;99.90
32811;DHT22;65470;47.324;8.548;2023-02-01T06:37:15;5.70;99.90
32811;DHT22;65470;47.324;8.548;2023-02-01T06:39:40;5.70;99.90
32811;DHT22;65470;47.324;8.548;2023-02-01T06:42:06;5.70;99.90
32811;DHT22;65470;47.324;8.548;2023-02-01T06:44:32;5.70;99.90
32811;DHT22;65470;47.324;8.548;2023-02-01T06:46:57;5.60;99.90
32811;DHT22;65470;47.324;8.548;2023-02-01T06:49:23;5.70;99.90
32811;DHT22;65470;47.324;8.548;2023-02-01T06:51:49;5.70;99.90
32811;DHT22;65470;47.324;8.548;2023-02-01T06:54:14;5.70;99.90
32811;DHT22;65470;47.324;8.548;2023-02-01T06:56:40;5.60;99.90
32811;DHT22;65470;47.324;8.548;2023-02-01T06:59:07;5.60;99.90
32811;DHT22;65470;47.324;8.548;2023-02-01T07:01:33;5.60;99.90
32811;DHT22;65470;47.324;8.548;2023-02-01T07:03:58;5.60;99.90
32811;DHT22;65470;47.324;8.548;2023-02-01T07:06:24;5.60;99.90
32811;DHT22;65470;47.324;8.548;2023-02-01T07:08:50;5.60;99.90
32811;DHT22;65470;47.324;8.548;2023-02-01T07:11:17;5.70;99.90
32811;DHT22;65470;47.324;8.548;2023-02-01T07:13:43;5.70;99.90
32811;DHT22;65470;47.324;8.548;2023-02-01T07:16:16;5.70;99.90
32811;DHT22;65470;47.324;8.548;2023-02-01T07:18:42;5.80;99.90
32811;DHT22;65470;47.324;8.548;2023-02-01T07:21:08;5.90;99.90
32811;DHT22;65470;47.324;8.548;2023-02-01T07:23:34;5.90;99.90
32811;DHT22;65470;47.324;8.548;2023-02-01T07:26:03;6.00;99.90
32811;DHT22;65470;47.324;8.548;2023-02-01T07:28:30;6.00;99.90
32811;DHT22;65470;47.324;8.548;2023-02-01T07:31:05;6.20;99.90
32811;DHT22;65470;47.324;8.548;2023-02-01T07:33:31;6.10;99.90
32811;DHT22;65470;47.324;8.548;2023-02-01T07:35:57;6.10;99.90
32811;DHT22;65470;47.324;8.548;2023-02-01T07:38:23;6.10;99.90
32811;DHT22;65470;47.324;8.548;2023-02-01T07:40:49;6.20;99.90
32811;DHT22;65470;47.324;8.548;2023-02-01T07:43:15;6.30;99.90
32811;DHT22;65470;47.324;8.548;2023-02-01T07:45:41;6.40;99.90
32811;DHT22;65470;47.324;8.548;2023-02-01T07:48:06;6.40;99.90
32811;DHT22;65470;47.324;8.548;2023-02-01T07:50:32;6.40;99.90
32811;DHT22;65470;47.324;8.548;2023-02-01T07:53:01;6.30;99.90
32811;DHT22;65470;47.324;8.548;2023-02-01T07:55:27;6.40;99.90
32811;DHT22;65470;47.324;8.548;2023-02-01T07:57:57;6.20;99.90
32811;DHT22;65470;47.324;8.548;2023-02-01T08:00:23;6.00;99.90
32811;DHT22;65470;47.324;8.548;2023-02-01T08:03:07;6.00;99.90
32811;DHT22;65470;47.324;8.548;2023-02-01T08:05:33;6.20;99.90
32811;DHT22;65470;47.324;8.548;2023-02-01T08:07:59;6.30;99.90
32811;DHT22;65470;47.324;8.548;2023-02-01T08:10:25;6.30;99.90
32811;DHT22;65470;47.324;8.548;2023-02-01T08:12:50;6.40;99.90
32811;DHT22;65470;47.324;8.548;2023-02-01T08:15:17;6.40;99.90
32811;DHT22;65470;47.324;8.548;2023-02-01T08:17:50;6.40;99.90
32811;DHT22;65470;47.324;8.548;2023-02-01T08:20:17;6.60;99.90
32811;DHT22;65470;47.324;8.548;2023-02-01T08:22:43;6.70;99.90
32811;DHT22;65470;47.324;8.548;2023-02-01T08:25:11;6.70;99.90
32811;DHT22;65470;47.324;8.548;2023-02-01T08:27:37;6.80;99.90
32811;DHT22;65470;47.324;8.548;2023-02-01T08:30:03;6.90;99.90
32811;DHT22;65470;47.324;8.548;2023-02-01T08:32:30;6.80;99.90
32811;DHT22;65470;47.324;8.548;2023-02-01T08:34:55;6.70;99.90
32811;DHT22;65470;47.324;8.548;2023-02-01T08:37:21;6.80;99.90
32811;DHT22;65470;47.324;8.548;2023-02-01T08:39:47;6.80;99.90
32811;DHT22;65470;47.324;8.548;2023-02-01T08:42:15;7.00;99.90
32811;DHT22;65470;47.324;8.548;2023-02-01T08:45:00;7.10;99.90
32811;DHT22;65470;47.324;8.548;2023-02-01T08:47:25;7.10;99.90
32811;DHT22;65470;47.324;8.548;2023-02-01T08:49:51;7.00;99.90
32811;DHT22;65470;47.324;8.548;2023-02-01T08:52:17;7.00;99.90
32811;DHT22;65470;47.324;8.548;2023-02-01T08:54:42;6.90;99.90
32811;DHT22;65470;47.324;8.548;2023-02-01T08:57:08;6.90;99.90
32811;DHT22;65470;47.324;8.548;2023-02-01T08:59:34;6.80;99.90
32811;DHT22;65470;47.324;8.548;2023-02-01T09:02:00;6.80;99.90
32811;DHT22;65470;47.324;8.548;2023-02-01T09:04:26;6.80;99.90
32811;DHT22;65470;47.324;8.548;2023-02-01T09:06:52;6.90;99.90
32811;DHT22;65470;47.324;8.548;2023-02-01T09:09:21;6.90;99.90
32811;DHT22;65470;47.324;8.548;2023-02-01T09:11:47;6.90;99.90
32811;DHT22;65470;47.324;8.548;2023-02-01T09:14:12;7.10;99.90
32811;DHT22;65470;47.324;8.548;2023-02-01T09:16:38;7.00;99.90
32811;DHT22;65470;47.324;8.548;2023-02-01T09:19:04;7.10;99.90
32811;DHT22;65470;47.324;8.548;2023-02-01T09:21:29;7.20;99.90
32811;DHT22;65470;47.324;8.548;2023-02-01T09:23:55;7.30;99.90
32811;DHT22;65470;47.324;8.548;2023-02-01T09:26:21;7.50;99.90
32811;DHT22;65470;47.324;8.548;2023-02-01T09:28:46;7.40;99.90
32811;DHT22;65470;47.324;8.548;2023-02-01T09:31:12;7.40;99.90
32811;DHT22;65470;47.324;8.548;2023-02-01T09:33:37;7.40;99.90
32811;DHT22;65470;47.324;8.548;2023-02-01T09:36:04;7.50;99.90
32811;DHT22;65470;47.324;8.548;2023-02-01T09:38:31;7.60;99.90
32811;DHT22;65470;47.324;8.548;2023-02-01T09:40:58;7.60;99.90
32811;DHT22;65470;47.324;8.548;2023-02-01T09:48:46;7.80;99.90
32811;DHT22;65470;47.324;8.548;2023-02-01T09:51:17;8.10;99.90
32811;DHT22;65470;47.324;8.548;2023-02-01T09:53:47;8.30;99.90
32811;DHT22;65470;47.324;8.548;2023-02-01T09:56:26;8.50;99.90
32811;DHT22;65470;47.324;8.548;2023-02-01T09:59:02;8.50;99.90
32811;DHT22;65470;47.324;8.548;2023-02-01T10:01:29;8.60;99.90
32811;DHT22;65470;47.324;8.548;2023-02-01T10:04:09;8.70;99.90
32811;DHT22;65470;47.324;8.548;2023-02-01T10:07:02;8.70;99.50
32811;DHT22;65470;47.324;8.548;2023-02-01T10:20:29;8.70;99.00
32811;DHT22;65470;47.324;8.548;2023-02-01T10:25:41;8.80;97.20
32811;DHT22;65470;47.324;8.548;2023-02-01T10:28:16;8.40;97.90
32811;DHT22;65470;47.324;8.548;2023-02-01T10:30:46;8.50;98.10
32811;DHT22;65470;47.324;8.548;2023-02-01T10:33:19;8.70;98.20
32811;DHT22;65470;47.324;8.548;2023-02-01T10:35:46;9.50;96.00
32811;DHT22;65470;47.324;8.548;2023-02-01T10:38:27;10.20;95.30
32811;DHT22;65470;47.324;8.548;2023-02-01T10:40:56;10.90;92.70
32811;DHT22;65470;47.324;8.548;2023-02-01T10:43:22;11.50;90.50
32811;DHT22;65470;47.324;8.548;2023-02-01T10:45:48;12.00;88.90
32811;DHT22;65470;47.324;8.548;2023-02-01T10:48:14;12.20;85.70
32811;DHT22;65470;47.324;8.548;2023-02-01T10:53:21;12.60;83.60
32811;DHT22;65470;47.324;8.548;2023-02-01T10:55:51;13.90;80.30
32811;DHT22;65470;47.324;8.548;2023-02-01T10:58:31;14.90;75.50
32811;DHT22;65470;47.324;8.548;2023-02-01T11:01:06;15.10;73.30
32811;DHT22;65470;47.324;8.548;2023-02-01T11:06:26;13.70;73.60
32811;DHT22;65470;47.324;8.548;2023-02-01T11:09:10;12.60;76.90
32811;DHT22;65470;47.324;8.548;2023-02-01T11:14:16;11.40;82.50
32811;DHT22;65470;47.324;8.548;2023-02-01T11:16:49;11.50;82.10
32811;DHT22;65470;47.324;8.548;2023-02-01T11:19:15;11.90;80.90
32811;DHT22;65470;47.324;8.548;2023-02-01T11:21:42;13.00;80.60
32811;DHT22;65470;47.324;8.548;2023-02-01T11:24:24;15.40;74.60
32811;DHT22;65470;47.324;8.548;2023-02-01T11:26:50;17.90;63.10
32811;DHT22;65470;47.324;8.548;2023-02-01T11:29:19;18.70;62.30
32811;DHT22;65470;47.324;8.548;2023-02-01T11:31:48;20.40;58.30
32811;DHT22;65470;47.324;8.548;2023-02-01T11:34:21;21.40;55.50
32811;DHT22;65470;47.324;8.548;2023-02-01T11:36:49;22.50;51.60
32811;DHT22;65470;47.324;8.548;2023-02-01T11:42:04;23.40;48.10
32811;DHT22;65470;47.324;8.548;2023-02-01T11:44:39;23.50;47.20
32811;DHT22;65470;47.324;8.548;2023-02-01T11:47:27;23.70;46.90
32811;DHT22;65470;47.324;8.548;2023-02-01T11:49:58;24.20;46.30
32811;DHT22;65470;47.324;8.548;2023-02-01T11:52:53;24.00;46.40
32811;DHT22;65470;47.324;8.548;2023-02-01T11:58:32;22.20;48.80
32811;DHT22;65470;47.324;8.548;2023-02-01T12:06:49;21.00;48.30
32811;DHT22;65470;47.324;8.548;2023-02-01T12:09:43;21.10;50.50
32811;DHT22;65470;47.324;8.548;2023-02-01T12:20:22;21.10;49.20
32811;DHT22;65470;47.324;8.548;2023-02-01T12:36:54;19.70;51.70
32811;DHT22;65470;47.324;8.548;2023-02-01T12:39:31;19.90;51.40
32811;DHT22;65470;47.324;8.548;2023-02-01T12:42:44;20.90;50.10
32811;DHT22;65470;47.324;8.548;2023-02-01T12:45:25;21.20;50.10
32811;DHT22;65470;47.324;8.548;2023-02-01T12:50:55;20.90;50.00
32811;DHT22;65470;47.324;8.548;2023-02-01T12:53:30;21.80;49.00
32811;DHT22;65470;47.324;8.548;2023-02-01T12:56:02;21.80;47.50
32811;DHT22;65470;47.324;8.548;2023-02-01T12:58:45;21.80;47.90
32811;DHT22;65470;47.324;8.548;2023-02-01T13:01:39;22.30;47.30
32811;DHT22;65470;47.324;8.548;2023-02-01T13:04:20;21.90;46.40
32811;DHT22;65470;47.324;8.548;2023-02-01T13:06:56;21.70;48.40
32811;DHT22;65470;47.324;8.548;2023-02-01T13:09:26;22.70;46.70
32811;DHT22;65470;47.324;8.548;2023-02-01T13:11:54;22.20;47.00
32811;DHT22;65470;47.324;8.548;2023-02-01T13:15:03;22.70;46.60
32811;DHT22;65470;47.324;8.548;2023-02-01T13:17:32;22.20;47.50
32811;DHT22;65470;47.324;8.548;2023-02-01T13:22:41;22.20;48.40
32811;DHT22;65470;47.324;8.548;2023-02-01T13:25:14;22.60;47.10
32811;DHT22;65470;47.324;8.548;2023-02-01T13:27:41;22.00;47.70
32811;DHT22;65470;47.324;8.548;2023-02-01T13:30:54;21.90;47.80
32811;DHT22;65470;47.324;8.548;2023-02-01T13:33:30;21.30;47.60
32811;DHT22;65470;47.324;8.548;2023-02-01T13:42:25;21.80;47.10
32811;DHT22;65470;47.324;8.548;2023-02-01T13:44:48;21.90;47.40
32811;DHT22;65470;47.324;8.548;2023-02-01T13:47:26;22.00;47.30
32811;DHT22;65470;47.324;8.548;2023-02-01T13:49:55;22.10;46.30
32811;DHT22;65470;47.324;8.548;2023-02-01T13:52:43;22.50;46.70
32811;DHT22;65470;47.324;8.548;2023-02-01T13:57:49;21.80;46.10
32811;DHT22;65470;47.324;8.548;2023-02-01T14:00:39;21.30;48.00
32811;DHT22;65470;47.324;8.548;2023-02-01T14:13:39;19.00;53.30
32811;DHT22;65470;47.324;8.548;2023-02-01T14:23:45;14.00;63.30
32811;DHT22;65470;47.324;8.548;2023-02-01T14:26:17;13.60;65.50
32811;DHT22;65470;47.324;8.548;2023-02-01T14:28:47;13.30;66.00
32811;DHT22;65470;47.324;8.548;2023-02-01T14:31:24;12.80;68.40
32811;DHT22;65470;47.324;8.548;2023-02-01T14:33:57;12.40;69.80
32811;DHT22;65470;47.324;8.548;2023-02-01T14:36:25;12.00;71.20
32811;DHT22;65470;47.324;8.548;2023-02-01T14:38:51;11.80;71.20
32811;DHT22;65470;47.324;8.548;2023-02-01T14:41:26;11.50;73.20
32811;DHT22;65470;47.324;8.548;2023-02-01T14:49:31;10.60;75.30
32811;DHT22;65470;47.324;8.548;2023-02-01T14:51:58;10.50;75.40
32811;DHT22;65470;47.324;8.548;2023-02-01T14:54:25;10.20;76.80
32811;DHT22;65470;47.324;8.548;2023-02-01T14:56:52;10.00;77.70
32811;DHT22;65470;47.324;8.548;2023-02-01T14:59:20;9.80;78.40
32811;DHT22;65470;47.324;8.548;2023-02-01T15:01:55;9.80;78.00
32811;DHT22;65470;47.324;8.548;2023-02-01T15:04:25;9.80;79.20
32811;DHT22;65470;47.324;8.548;2023-02-01T15:06:54;9.80;78.80
32811;DHT22;65470;47.324;8.548;2023-02-01T15:09:56;9.70;79.50
32811;DHT22;65470;47.324;8.548;2023-02-01T15:12:27;9.70;79.70
32811;DHT22;65470;47.324;8.548;2023-02-01T15:15:16;9.70;79.70
32811;DHT22;65470;47.324;8.548;2023-02-01T15:17:54;9.70;80.20
32811;DHT22;65470;47.324;8.548;2023-02-01T15:20:30;9.70;79.70
32811;DHT22;65470;47.324;8.548;2023-02-01T15:22:58;9.70;80.10
32811;DHT22;65470;47.324;8.548;2023-02-01T15:27:51;9.50;79.60
32811;DHT22;65470;47.324;8.548;2023-02-01T15:30:32;9.60;79.30
32811;DHT22;65470;47.324;8.548;2023-02-01T15:35:44;9.70;78.90
32811;DHT22;65470;47.324;8.548;2023-02-01T15:43:36;9.50;79.10
32811;DHT22;65470;47.324;8.548;2023-02-01T15:46:06;9.50;77.80
32811;DHT22;65470;47.324;8.548;2023-02-01T15:48:41;9.40;77.80
32811;DHT22;65470;47.324;8.548;2023-02-01T15:51:12;9.20;78.10
32811;DHT22;65470;47.324;8.548;2023-02-01T15:53:44;9.10;78.20
32811;DHT22;65470;47.324;8.548;2023-02-01T15:56:10;9.10;78.00
32811;DHT22;65470;47.324;8.548;2023-02-01T15:58:36;9.00;77.50
32811;DHT22;65470;47.324;8.548;2023-02-01T16:01:04;9.00;77.90
32811;DHT22;65470;47.324;8.548;2023-02-01T16:03:38;8.90;78.00
32811;DHT22;65470;47.324;8.548;2023-02-01T16:09:11;8.80;78.00
32811;DHT22;65470;47.324;8.548;2023-02-01T16:11:47;8.70;78.60
32811;DHT22;65470;47.324;8.548;2023-02-01T16:14:13;8.60;79.30
32811;DHT22;65470;47.324;8.548;2023-02-01T16:16:39;8.50;79.00
32811;DHT22;65470;47.324;8.548;2023-02-01T16:19:04;8.50;78.80
32811;DHT22;65470;47.324;8.548;2023-02-01T16:21:30;8.40;79.20
32811;DHT22;65470;47.324;8.548;2023-02-01T16:23:55;8.40;79.50
32811;DHT22;65470;47.324;8.548;2023-02-01T16:26:21;8.40;79.10
32811;DHT22;65470;47.324;8.548;2023-02-01T16:28:47;8.30;79.30
32811;DHT22;65470;47.324;8.548;2023-02-01T16:31:17;8.20;80.10
32811;DHT22;65470;47.324;8.548;2023-02-01T16:33:50;8.20;80.40
32811;DHT22;65470;47.324;8.548;2023-02-01T16:36:17;8.20;80.10
32811;DHT22;65470;47.324;8.548;2023-02-01T16:38:43;8.20;80.40
32811;DHT22;65470;47.324;8.548;2023-02-01T16:41:13;8.20;80.60
32811;DHT22;65470;47.324;8.548;2023-02-01T16:43:40;8.20;80.50
32811;DHT22;65470;47.324;8.548;2023-02-01T16:46:08;8.10;81.00
32811;DHT22;65470;47.324;8.548;2023-02-01T16:48:40;8.10;81.40
32811;DHT22;65470;47.324;8.548;2023-02-01T16:51:13;8.00;82.60
32811;DHT22;65470;47.324;8.548;2023-02-01T16:53:39;7.90;82.40
32811;DHT22;65470;47.324;8.548;2023-02-01T16:56:28;7.90;82.00
32811;DHT22;65470;47.324;8.548;2023-02-01T16:58:54;7.90;82.20
32811;DHT22;65470;47.324;8.548;2023-02-01T17:01:20;8.00;82.30
32811;DHT22;65470;47.324;8.548;2023-02-01T17:03:46;8.00;82.60
32811;DHT22;65470;47.324;8.548;2023-02-01T17:06:15;8.00;82.30
32811;DHT22;65470;47.324;8.548;2023-02-01T17:08:47;7.90;82.20
32811;DHT22;65470;47.324;8.548;2023-02-01T17:11:15;8.00;82.70
32811;DHT22;65470;47.324;8.548;2023-02-01T17:13:42;8.00;82.60
32811;DHT22;65470;47.324;8.548;2023-02-01T17:16:27;7.90;82.20
32811;DHT22;65470;47.324;8.548;2023-02-01T17:18:57;8.00;82.20
32811;DHT22;65470;47.324;8.548;2023-02-01T17:21:26;8.10;81.80
32811;DHT22;65470;47.324;8.548;2023-02-01T17:23:53;8.10;81.80
32811;DHT22;65470;47.324;8.548;2023-02-01T17:26:19;8.00;82.20
32811;DHT22;65470;47.324;8.548;2023-02-01T17:28:44;8.00;82.20
32811;DHT22;65470;47.324;8.548;2023-02-01T17:31:13;8.00;81.60
32811;DHT22;65470;47.324;8.548;2023-02-01T17:33:40;8.00;82.10
32811;DHT22;65470;47.324;8.548;2023-02-01T17:36:12;8.00;81.40
32811;DHT22;65470;47.324;8.548;2023-02-01T17:38:38;8.00;82.00
32811;DHT22;65470;47.324;8.548;2023-02-01T17:41:04;7.90;82.00
32811;DHT22;65470;47.324;8.548;2023-02-01T17:43:29;7.90;82.10
32811;DHT22;65470;47.324;8.548;2023-02-01T17:45:59;8.00;81.80
32811;DHT22;65470;47.324;8.548;2023-02-01T17:48:25;7.90;81.80
32811;DHT22;65470;47.324;8.548;2023-02-01T17:50:51;7.90;81.70
32811;DHT22;65470;47.324;8.548;2023-02-01T17:53:24;8.00;81.40
32811;DHT22;65470;47.324;8.548;2023-02-01T17:55:50;8.00;81.30
32811;DHT22;65470;47.324;8.548;2023-02-01T17:58:16;8.10;81.80
32811;DHT22;65470;47.324;8.548;2023-02-01T18:00:43;8.00;81.90
32811;DHT22;65470;47.324;8.548;2023-02-01T18:03:30;8.00;81.90
32811;DHT22;65470;47.324;8.548;2023-02-01T18:05:58;8.10;82.60
32811;DHT22;65470;47.324;8.548;2023-02-01T18:08:28;7.90;82.20
32811;DHT22;65470;47.324;8.548;2023-02-01T18:10:56;8.00;82.40
32811;DHT22;65470;47.324;8.548;2023-02-01T18:13:30;8.00;83.20
32811;DHT22;65470;47.324;8.548;2023-02-01T18:15:56;7.90;83.90
32811;DHT22;65470;47.324;8.548;2023-02-01T18:18:24;7.80;83.40
32811;DHT22;65470;47.324;8.548;2023-02-01T18:20:50;7.90;83.50
32811;DHT22;65470;47.324;8.548;2023-02-01T18:23:21;7.80;83.80
32811;DHT22;65470;47.324;8.548;2023-02-01T18:25:48;7.80;84.80
32811;DHT22;65470;47.324;8.548;2023-02-01T18:28:15;7.70;85.00
32811;DHT22;65470;47.324;8.548;2023-02-01T18:30:42;7.80;85.00